Time;durP1;ratioP1;P1;durP2;ratioP2;P2;SDS_P1;SDS_P2;PMS_P1;PMS_P2;Temp;Humidity;BMP_temperature;BMP_pressure;BME280_temperature;BME280_humidity;BME280_pressure;Samples;Min_cycle;Max_cycle;Signal;HPM_P1;HPM_P2
2022/12/09 00:00:07;;;;;;;14.60;7.10;;;;;;;4.05;82.81;99648.36;24616;1330;3026157;-70
2022/12/09 00:02:37;;;;;;;13.30;7.50;;;;;;;3.88;83.88;99652.15;24627;1330;3050521;-71
2022/12/09 00:05:06;;;;;;;18.10;7.50;;;;;;;3.83;84.72;99651.77;24581;1322;3026429;-71
2022/12/09 00:07:36;;;;;;;12.20;4.80;;;;;;;3.75;85.58;99648.56;24549;1330;3027930;-70
2022/12/09 00:10:06;;;;;;;10.20;4.40;;;;;;;4.15;85.22;99652.70;24580;1330;3025795;-69
2022/12/09 00:12:35;;;;;;;10.60;5.80;;;;;;;4.72;82.79;99646.90;24565;1323;3067402;-72
2022/12/09 00:15:04;;;;;;;11.80;5.60;;;;;;;4.75;81.95;99645.39;24611;1333;3026694;-70
2022/12/09 00:17:33;;;;;;;13.50;6.30;;;;;;;4.62;82.32;99647.23;24544;1340;3049172;-71
2022/12/09 00:20:03;;;;;;;17.00;7.00;;;;;;;4.50;82.59;99644.31;24599;1323;3025660;-71
2022/12/09 00:22:32;;;;;;;14.30;6.50;;;;;;;4.41;82.96;99645.80;24604;1332;3052600;-67
2022/12/09 00:25:01;;;;;;;12.70;6.20;;;;;;;4.19;83.44;99647.04;24576;1330;3026158;-71
2022/12/09 00:27:30;;;;;;;15.10;6.90;;;;;;;4.01;84.22;99651.06;24602;1328;3050994;-71
2022/12/09 00:30:02;;;;;;;10.70;5.40;;;;;;;3.93;84.93;99647.15;24592;1326;3025905;-67
2022/12/09 00:32:31;;;;;;;9.40;4.40;;;;;;;4.22;84.58;99645.02;24582;1331;3026532;-70
2022/12/09 00:35:00;;;;;;;10.20;5.60;;;;;;;4.81;82.57;99635.83;24602;1322;3028778;-67
2022/12/09 00:37:30;;;;;;;11.90;6.70;;;;;;;4.96;81.46;99633.58;24595;1330;3051941;-70
2022/12/09 00:40:00;;;;;;;13.30;6.50;;;;;;;4.64;81.88;99645.42;24605;1330;3026823;-69
2022/12/09 00:42:29;;;;;;;13.50;6.60;;;;;;;4.58;82.59;99647.16;24560;1323;3028571;-68
2022/12/09 00:44:59;;;;;;;10.90;5.50;;;;;;;4.42;83.29;99644.44;24544;1326;3052163;-68
2022/12/09 00:47:27;;;;;;;11.90;6.10;;;;;;;4.25;84.00;99644.95;24485;1333;3025780;-70
2022/12/09 00:49:56;;;;;;;11.90;5.80;;;;;;;4.09;85.05;99645.43;24551;1333;3050188;-70
2022/12/09 00:52:25;;;;;;;7.10;3.50;;;;;;;3.98;86.03;99640.07;24560;1330;3026214;-70
2022/12/09 00:54:55;;;;;;;5.40;3.50;;;;;;;4.49;84.90;99635.16;24559;1322;3051111;-71
2022/12/09 00:57:24;;;;;;;9.10;4.00;;;;;;;4.88;82.44;99631.43;24536;1333;3026320;-68
2022/12/09 00:59:52;;;;;;;8.30;4.20;;;;;;;4.81;82.42;99627.67;24640;1330;3052066;-71
2022/12/09 01:02:21;;;;;;;8.90;4.90;;;;;;;4.47;83.68;99633.66;24537;1326;3026114;-69
2022/12/09 01:04:51;;;;;;;8.30;4.70;;;;;;;4.37;84.16;99633.29;24630;1330;3056640;-70
2022/12/09 01:07:20;;;;;;;8.00;4.80;;;;;;;4.26;84.86;99626.39;24606;1328;3026940;-71
2022/12/09 01:09:49;;;;;;;8.90;5.00;;;;;;;4.12;85.84;99620.05;24582;1323;3026160;-69
2022/12/09 01:12:18;;;;;;;10.20;5.00;;;;;;;4.17;85.75;99616.08;24635;1331;3056715;-71
2022/12/09 01:14:49;;;;;;;10.30;4.50;;;;;;;4.12;86.10;99618.83;24530;1332;3029252;-71
2022/12/09 01:17:19;;;;;;;9.30;4.30;;;;;;;4.42;85.25;99612.00;24580;1330;3025583;-72
2022/12/09 01:19:48;;;;;;;7.80;4.40;;;;;;;4.89;83.63;99601.38;24593;1330;3026408;-70
2022/12/09 01:22:17;;;;;;;10.70;5.20;;;;;;;4.82;83.10;99603.69;24527;1331;3052575;-70
2022/12/09 01:24:46;;;;;;;9.10;5.20;;;;;;;4.76;83.61;99604.59;24568;1323;3026196;-70
2022/12/09 01:27:16;;;;;;;9.30;4.90;;;;;;;4.71;83.57;99605.29;24613;1329;3055734;-72
2022/12/09 01:29:45;;;;;;;13.80;6.00;;;;;;;4.57;84.17;99609.40;24545;1328;3025906;-71
2022/12/09 01:32:14;;;;;;;11.60;6.50;;;;;;;4.35;84.78;99617.06;24623;1323;3049187;-71
2022/12/09 01:34:43;;;;;;;9.90;5.30;;;;;;;4.20;85.70;99619.98;24509;1332;3026553;-69
2022/12/09 01:37:12;;;;;;;8.30;3.80;;;;;;;4.27;86.14;99623.58;24588;1333;3067597;-69
2022/12/09 01:39:41;;;;;;;8.80;4.20;;;;;;;4.55;85.07;99614.50;24557;1329;3028578;-71
2022/12/09 01:42:21;;;;;;;8.80;4.30;;;;;;;5.09;83.39;99607.45;24561;1340;3049283;-70
2022/12/09 01:45:18;;;;;;;8.80;5.00;;;;;;;5.07;82.51;99609.79;24613;1330;3068155;-69
2022/12/09 01:47:53;;;;;;;13.30;6.10;;;;;;;4.87;83.15;99617.55;24498;1330;3050226;-69
2022/12/09 01:50:22;;;;;;;9.80;5.90;;;;;;;4.43;84.50;99622.88;24583;1324;3056727;-72
2022/12/09 01:52:51;;;;;;;13.10;6.20;;;;;;;4.28;85.52;99623.35;24476;1330;3026632;-70
2022/12/09 01:55:21;;;;;;;12.60;6.60;;;;;;;4.16;86.35;99625.64;24519;1331;3026238;-71
2022/12/09 01:57:50;;;;;;;6.60;4.10;;;;;;;4.13;86.90;99624.00;24512;1327;3056375;-71
2022/12/09 02:00:20;;;;;;;8.30;4.10;;;;;;;4.68;85.73;99619.61;24598;1331;3027209;-72
2022/12/09 02:02:52;;;;;;;11.40;5.70;;;;;;;5.02;83.70;99609.42;24659;1330;3025927;-70
2022/12/09 02:05:23;;;;;;;9.40;5.20;;;;;;;5.21;82.31;99610.83;24518;1333;3026040;-71
2022/12/09 02:07:56;;;;;;;12.40;6.30;;;;;;;5.06;82.31;99614.84;24599;1330;3053666;-72
2022/12/09 02:10:25;;;;;;;13.10;5.60;;;;;;;4.74;83.16;99619.25;24567;1322;3028177;-71
2022/12/09 02:13:24;;;;;;;12.30;6.70;;;;;;;4.55;84.47;99621.95;24575;1334;3058804;-67
2022/12/09 02:15:55;;;;;;;11.00;5.80;;;;;;;4.47;84.94;99620.46;24617;1329;3051309;-71
2022/12/09 02:18:41;;;;;;;13.10;5.90;;;;;;;4.34;85.36;99621.11;24618;1323;3026170;-68
2022/12/09 02:21:14;;;;;;;9.60;4.30;;;;;;;4.38;85.54;99621.14;24512;1326;3051602;-67
2022/12/09 02:23:53;;;;;;;10.10;4.50;;;;;;;4.78;84.72;99607.63;24502;1330;3026529;-69
2022/12/09 02:26:26;;;;;;;9.10;4.60;;;;;;;5.24;82.40;99604.66;24555;1333;3050052;-71
2022/12/09 02:29:16;;;;;;;10.40;4.90;;;;;;;5.40;81.74;99602.30;24547;1329;3026241;-67
2022/12/09 02:32:09;;;;;;;11.00;5.40;;;;;;;5.24;81.66;99606.04;24571;1342;3051797;-68
2022/12/09 02:34:41;;;;;;;11.70;6.30;;;;;;;5.09;82.31;99602.23;24608;1323;3056441;-69
2022/12/09 02:38:02;;;;;;;13.20;6.50;;;;;;;4.99;82.83;99608.31;24622;1325;3024785;-71
2022/12/09 02:40:41;;;;;;;11.90;5.80;;;;;;;4.71;84.19;99610.33;24580;1331;3053477;-69
2022/12/09 02:43:11;;;;;;;13.00;6.00;;;;;;;4.54;84.77;99613.83;24543;1330;3051464;-71
2022/12/09 02:45:41;;;;;;;9.80;4.20;;;;;;;4.40;86.14;99616.89;24538;1326;3026144;-69
2022/12/09 02:48:11;;;;;;;7.10;4.20;;;;;;;4.96;85.21;99606.66;24582;1327;3053315;-69
2022/12/09 02:50:40;;;;;;;7.50;4.40;;;;;;;5.50;83.16;99608.70;24547;1326;3026976;-70
2022/12/09 02:53:11;;;;;;;8.10;4.90;;;;;;;5.69;81.48;99605.41;24509;1328;3028316;-71
2022/12/09 02:55:41;;;;;;;14.00;5.90;;;;;;;5.38;81.68;99607.25;24622;1332;3052516;-71
2022/12/09 02:58:12;;;;;;;10.40;5.40;;;;;;;5.18;82.00;99608.16;24569;1332;3025869;-71
2022/12/09 03:00:41;;;;;;;7.60;4.60;;;;;;;5.06;82.82;99606.33;24616;1333;3025963;-67
2022/12/09 03:03:15;;;;;;;7.60;4.50;;;;;;;4.89;83.29;99608.66;24544;1340;3052191;-69
2022/12/09 03:05:59;;;;;;;7.40;4.20;;;;;;;4.75;84.00;99612.09;24564;1323;3053169;-70
2022/12/09 03:08:50;;;;;;;6.60;3.10;;;;;;;4.69;84.52;99614.70;24650;1331;3052567;-72
2022/12/09 03:11:21;;;;;;;4.20;2.60;;;;;;;5.29;82.64;99605.50;24558;1336;3049230;-72
2022/12/09 03:13:55;;;;;;;5.30;3.60;;;;;;;5.70;80.65;99603.61;24563;1334;3024829;-70
2022/12/09 03:17:01;;;;;;;7.20;3.60;;;;;;;5.56;80.44;99606.23;24576;1329;3049655;-72
2022/12/09 03:19:40;;;;;;;6.80;4.10;;;;;;;5.40;81.28;99605.41;24584;1330;3057634;-69
2022/12/09 03:22:13;;;;;;;7.40;3.90;;;;;;;5.32;81.93;99602.27;24588;1321;3051752;-69
2022/12/09 03:24:56;;;;;;;8.20;4.70;;;;;;;5.19;81.82;99600.98;24560;1340;4352920;-70
2022/12/09 03:27:27;;;;;;;7.40;4.60;;;;;;;4.94;82.54;99598.23;24529;1330;3051518;-70
2022/12/09 03:29:57;;;;;;;8.90;5.40;;;;;;;4.81;83.02;99598.86;24578;1331;3026629;-72
2022/12/09 03:32:25;;;;;;;8.60;4.90;;;;;;;4.75;83.55;99603.23;24550;1323;3028383;-71
2022/12/09 03:34:58;;;;;;;10.60;5.00;;;;;;;5.20;82.50;99596.59;24582;1329;3050516;-70
2022/12/09 03:37:27;;;;;;;10.70;5.50;;;;;;;5.65;81.13;99595.45;24595;1327;3026849;-72
2022/12/09 03:39:56;;;;;;;13.70;7.10;;;;;;;5.55;80.79;99599.31;24610;1316;3025996;-73
2022/12/09 03:42:44;;;;;;;15.60;7.90;;;;;;;5.37;81.56;99606.25;24562;1332;3053216;-69
2022/12/09 03:45:14;;;;;;;15.10;7.70;;;;;;;5.16;82.42;99604.75;24519;1340;3052357;-69
2022/12/09 03:47:43;;;;;;;18.20;9.50;;;;;;;4.87;83.44;99607.50;24544;1328;3024840;-70
2022/12/09 03:50:12;;;;;;;17.10;9.40;;;;;;;4.75;84.47;99603.25;24604;1332;3026229;-72
2022/12/09 03:52:50;;;;;;;21.70;9.70;;;;;;;4.72;84.52;99599.01;24517;1333;3051978;-73
2022/12/09 03:55:42;;;;;;;12.70;6.30;;;;;;;4.65;84.95;99602.16;24587;1346;3050088;-72
2022/12/09 03:58:11;;;;;;;14.00;6.50;;;;;;;5.16;84.04;99596.73;24529;1324;3068237;-72
2022/12/09 04:00:40;;;;;;;19.10;8.70;;;;;;;5.54;82.08;99590.34;24583;1334;3025388;-68
2022/12/09 04:03:11;;;;;;;22.30;10.60;;;;;;;5.48;81.78;99588.81;24509;1343;3048389;-67
2022/12/09 04:05:41;;;;;;;24.20;10.50;;;;;;;5.17;82.57;99584.05;24570;1330;3026205;-68
2022/12/09 04:08:10;;;;;;;24.80;10.60;;;;;;;5.07;83.26;99584.76;24605;1330;3026391;-73
2022/12/09 04:10:40;;;;;;;23.00;9.70;;;;;;;4.93;83.61;99587.33;24532;1334;3028457;-72
2022/12/09 04:13:09;;;;;;;25.90;11.30;;;;;;;4.71;83.87;99587.91;24536;1331;3025890;-71
2022/12/09 04:15:38;;;;;;;22.30;9.70;;;;;;;4.50;85.36;99583.60;24570;1327;3025931;-70
2022/12/09 04:18:07;;;;;;;17.30;7.50;;;;;;;4.40;86.19;99590.73;24561;1337;3056463;-71
2022/12/09 04:20:37;;;;;;;18.30;8.30;;;;;;;4.96;85.38;99576.46;24507;1327;3028833;-71
2022/12/09 04:23:07;;;;;;;18.00;8.50;;;;;;;5.42;83.15;99574.46;24546;1331;3025121;-68
2022/12/09 04:25:36;;;;;;;19.70;8.90;;;;;;;5.51;82.03;99572.70;24567;1340;3026509;-69
2022/12/09 04:28:05;;;;;;;21.00;9.60;;;;;;;5.41;82.00;99568.40;24524;1328;3053486;-69
2022/12/09 04:30:34;;;;;;;18.80;8.80;;;;;;;5.22;82.63;99570.33;24603;1324;3028169;-69
2022/12/09 04:33:03;;;;;;;21.00;9.70;;;;;;;4.98;83.29;99571.02;24563;1337;3055885;-70
2022/12/09 04:35:33;;;;;;;20.10;9.40;;;;;;;4.78;84.32;99575.03;24544;1332;3026250;-69
2022/12/09 04:38:02;;;;;;;19.00;8.50;;;;;;;4.76;84.58;99571.80;24590;1319;3027361;-67
2022/12/09 04:40:31;;;;;;;17.90;7.10;;;;;;;4.57;85.39;99575.39;24527;1322;3056180;-69
2022/12/09 04:43:00;;;;;;;18.40;7.60;;;;;;;5.07;84.76;99565.98;24602;1334;3026341;-69
2022/12/09 04:48:33;;;;;;;19.20;9.70;;;;;;;5.76;81.13;99568.11;30809;1330;3013181;-67
2022/12/09 04:51:02;;;;;;;16.20;8.70;;;;;;;5.30;81.92;99572.98;24505;1336;3026450;-69
2022/12/09 04:53:31;;;;;;;17.60;8.70;;;;;;;5.32;82.01;99564.55;24518;1334;3028873;-69
2022/12/09 04:56:01;;;;;;;20.60;9.50;;;;;;;4.75;84.27;99575.83;24567;1327;3028064;-68
2022/12/09 04:58:30;;;;;;;20.40;9.00;;;;;;;4.66;84.84;99577.33;24558;1334;3070463;-69
2022/12/09 05:01:07;;;;;;;16.30;7.50;;;;;;;4.67;84.82;99579.56;23862;1323;4375935;-70
2022/12/09 05:03:36;;;;;;;12.30;5.90;;;;;;;4.39;86.09;99590.58;24570;1334;3049036;-69
2022/12/09 05:06:10;;;;;;;13.10;6.30;;;;;;;5.09;85.12;99572.87;24549;1336;3028648;-69
2022/12/09 05:08:39;;;;;;;16.90;7.70;;;;;;;5.47;82.73;99571.84;24584;1333;3026182;-71
2022/12/09 05:11:08;;;;;;;20.40;9.80;;;;;;;5.63;81.95;99572.08;24562;1331;3028681;-68
2022/12/09 05:13:37;;;;;;;18.40;8.40;;;;;;;5.48;81.91;99579.42;24534;1331;3028032;-72
2022/12/09 05:16:09;;;;;;;16.00;8.20;;;;;;;5.29;82.26;99582.77;24593;1330;3026683;-71
2022/12/09 05:18:38;;;;;;;16.90;8.40;;;;;;;5.02;83.34;99586.33;24560;1334;3057225;-69
2022/12/09 05:21:09;;;;;;;17.10;8.10;;;;;;;4.72;85.10;99594.17;24551;1318;3028116;-69
2022/12/09 05:23:38;;;;;;;18.00;8.90;;;;;;;4.38;86.30;99604.13;24600;1330;3026824;-70
2022/12/09 05:26:12;;;;;;;10.80;5.60;;;;;;;4.45;87.18;99603.39;24561;1331;3026819;-69
2022/12/09 05:28:41;;;;;;;12.90;6.00;;;;;;;5.01;85.85;99593.12;24582;1331;3053247;-69
2022/12/09 05:31:15;;;;;;;18.80;8.50;;;;;;;5.31;83.50;99593.79;24571;1334;3026159;-67
2022/12/09 05:33:46;;;;;;;21.20;8.60;;;;;;;5.39;83.24;99590.54;24591;1331;3056372;-71
2022/12/09 05:36:18;;;;;;;15.50;8.70;;;;;;;5.26;83.31;99592.77;24566;1331;3026025;-69
2022/12/09 05:38:47;;;;;;;16.60;8.70;;;;;;;5.25;83.51;99589.99;24507;1331;3026437;-70
2022/12/09 05:41:17;;;;;;;18.90;9.60;;;;;;;4.93;84.12;99593.08;24517;1337;3026903;-71
2022/12/09 05:43:46;;;;;;;19.10;8.60;;;;;;;4.78;84.96;99584.90;24603;1331;3026567;-70
2022/12/09 05:46:15;;;;;;;18.50;9.60;;;;;;;4.59;85.81;99592.17;24561;1333;3025827;-70
2022/12/09 05:48:44;;;;;;;16.80;6.30;;;;;;;4.47;86.78;99596.54;24583;1331;3049511;-69
2022/12/09 05:51:21;;;;;;;11.20;6.10;;;;;;;4.99;85.59;99584.86;24571;1324;3027501;-71
2022/12/09 05:53:51;;;;;;;15.30;7.40;;;;;;;5.32;83.43;99584.01;24642;1341;3053528;-70
2022/12/09 05:56:21;;;;;;;17.70;7.90;;;;;;;5.42;83.25;99584.69;24588;1324;3026789;-72
2022/12/09 05:58:50;;;;;;;19.20;8.70;;;;;;;5.40;82.78;99578.00;24584;1330;3027107;-72
2022/12/09 06:01:22;;;;;;;15.80;8.50;;;;;;;5.13;83.44;99579.88;24541;1330;3026355;-71
2022/12/09 06:03:52;;;;;;;17.80;7.80;;;;;;;4.82;84.63;99585.98;24568;1334;3026872;-69
2022/12/09 06:06:22;;;;;;;14.10;7.60;;;;;;;4.54;85.89;99590.23;24555;1333;3027503;-68
2022/12/09 06:08:55;;;;;;;15.80;7.50;;;;;;;4.52;86.55;99594.45;24564;1324;3026371;-70
2022/12/09 06:11:24;;;;;;;11.40;4.70;;;;;;;4.46;86.97;99595.18;24544;1331;3026806;-71
2022/12/09 06:13:53;;;;;;;12.10;5.30;;;;;;;4.93;86.00;99585.60;24531;1339;3030518;-69
2022/12/09 06:16:24;;;;;;;14.10;6.50;;;;;;;5.32;83.92;99585.05;24551;1331;3026260;-69
2022/12/09 06:18:53;;;;;;;11.50;6.00;;;;;;;5.37;83.51;99587.65;24635;1333;3026633;-73
2022/12/09 06:21:22;;;;;;;13.10;6.10;;;;;;;5.08;84.32;99594.95;24563;1339;3027050;-70
2022/12/09 06:23:53;;;;;;;14.00;6.90;;;;;;;4.99;84.76;99593.54;24555;1326;3028519;-71
2022/12/09 06:26:27;;;;;;;14.30;6.70;;;;;;;4.85;85.39;99600.47;24558;1334;3026051;-72
2022/12/09 06:28:56;;;;;;;11.60;6.20;;;;;;;4.52;86.90;99608.86;24538;1334;3050172;-66
2022/12/09 06:31:26;;;;;;;8.50;4.40;;;;;;;4.56;87.74;99605.23;24484;1340;3025917;-67
2022/12/09 06:33:55;;;;;;;9.40;4.50;;;;;;;5.13;86.15;99598.06;24595;1334;3052941;-66
2022/12/09 06:36:25;;;;;;;10.00;4.50;;;;;;;5.45;84.03;99592.42;24583;1334;3025862;-63
2022/12/09 06:38:55;;;;;;;12.70;6.10;;;;;;;5.42;83.81;99590.42;24537;1324;3051345;-65
2022/12/09 06:41:24;;;;;;;12.60;6.80;;;;;;;5.16;84.17;99592.40;24618;1319;3025987;-64
2022/12/09 06:43:56;;;;;;;15.40;7.70;;;;;;;4.99;85.34;99596.34;24618;1339;3025912;-66
2022/12/09 06:46:25;;;;;;;11.90;6.40;;;;;;;4.88;86.27;99596.38;24559;1323;3050257;-67
2022/12/09 06:48:55;;;;;;;12.20;6.40;;;;;;;4.82;86.07;99597.97;24604;1331;3026509;-68
2022/12/09 06:51:24;;;;;;;8.40;4.50;;;;;;;4.77;86.63;99598.30;24557;1331;3026615;-69
2022/12/09 06:53:53;;;;;;;7.60;4.10;;;;;;;5.13;85.87;99594.07;24561;1324;3051356;-71
2022/12/09 06:56:22;;;;;;;7.50;4.30;;;;;;;5.61;84.27;99590.05;24601;1331;3028379;-70
2022/12/09 06:58:51;;;;;;;10.00;5.30;;;;;;;5.56;83.43;99592.36;24577;1331;3026300;-69
2022/12/09 07:01:23;;;;;;;9.70;6.00;;;;;;;5.21;84.65;99602.83;24570;1333;3050087;-71
2022/12/09 07:03:54;;;;;;;9.70;5.10;;;;;;;5.07;85.80;99602.98;24587;1323;3026546;-68
2022/12/09 07:06:34;;;;;;;10.40;5.20;;;;;;;4.95;86.08;99603.73;24587;1334;3026472;-69
2022/12/09 07:09:06;;;;;;;9.30;5.30;;;;;;;4.94;86.45;99601.38;24625;1334;3068968;-69
2022/12/09 07:11:36;;;;;;;6.70;3.40;;;;;;;4.92;86.77;99595.00;24595;1334;3028752;-70
2022/12/09 07:14:05;;;;;;;8.30;3.70;;;;;;;5.43;85.63;99592.98;24521;1333;3028319;-71
2022/12/09 07:16:34;;;;;;;8.20;4.10;;;;;;;5.59;84.06;99595.19;24612;1328;3028690;-67
2022/12/09 07:19:04;;;;;;;9.60;4.90;;;;;;;5.65;83.98;99594.79;24559;1339;3049805;-66
2022/12/09 07:21:33;;;;;;;9.40;4.70;;;;;;;5.36;84.57;99592.21;24596;1316;3026153;-71
2022/12/09 07:24:02;;;;;;;8.80;5.10;;;;;;;5.27;85.40;99599.13;24633;1331;3024958;-67
2022/12/09 07:26:32;;;;;;;8.30;4.70;;;;;;;5.17;85.76;99601.58;24583;1339;3049695;-70
2022/12/09 07:29:02;;;;;;;11.50;4.70;;;;;;;5.17;85.70;99600.02;24662;1330;3028402;-69
2022/12/09 07:31:31;;;;;;;6.00;3.50;;;;;;;4.94;86.29;99603.08;24626;1323;3068296;-70
2022/12/09 07:34:00;;;;;;;8.30;4.40;;;;;;;5.28;86.55;99602.55;24526;1332;3026760;-73
2022/12/09 07:36:29;;;;;;;8.40;4.80;;;;;;;5.61;84.51;99591.80;24620;1331;3048008;-69
2022/12/09 07:39:07;;;;;;;9.80;5.20;;;;;;;5.88;83.65;99590.03;24638;1333;3026595;-70
2022/12/09 07:41:38;;;;;;;13.30;6.70;;;;;;;5.65;83.57;99583.83;24665;1324;3050090;-72
2022/12/09 07:44:07;;;;;;;8.60;5.00;;;;;;;5.48;84.65;99591.61;24610;1331;3027149;-71
2022/12/09 07:46:37;;;;;;;11.70;5.10;;;;;;;5.35;85.03;99590.33;24558;1335;3026508;-70
2022/12/09 07:49:05;;;;;;;11.00;6.10;;;;;;;5.19;85.65;99599.63;24550;1326;3049555;-73
2022/12/09 07:51:35;;;;;;;7.30;3.30;;;;;;;4.92;87.00;99601.92;24623;1333;3028829;-71
2022/12/09 07:54:04;;;;;;;7.60;4.00;;;;;;;5.38;86.43;99591.09;24596;1330;3026333;-69
2022/12/09 07:56:33;;;;;;;10.40;5.10;;;;;;;5.89;83.88;99588.65;24587;1324;3049383;-71
2022/12/09 07:59:05;;;;;;;10.20;5.40;;;;;;;5.98;82.90;99579.43;24595;1324;3026413;-66
2022/12/09 08:01:34;;;;;;;11.90;6.20;;;;;;;5.87;83.22;99574.13;24554;1317;3069238;-68
2022/12/09 08:04:04;;;;;;;10.60;4.80;;;;;;;5.73;83.83;99561.78;24646;1340;3025464;-70
2022/12/09 08:06:34;;;;;;;11.60;6.50;;;;;;;5.61;84.33;99561.23;24585;1327;3026005;-71
2022/12/09 08:09:06;;;;;;;11.60;6.30;;;;;;;5.31;85.59;99571.39;24596;1329;3029148;-73
2022/12/09 08:11:36;;;;;;;13.70;7.20;;;;;;;5.17;86.54;99571.39;24583;1324;3026187;-70
2022/12/09 08:14:07;;;;;;;10.10;4.80;;;;;;;5.13;87.45;99569.62;24584;1331;3026304;-70
2022/12/09 08:16:36;;;;;;;10.20;5.10;;;;;;;5.47;86.75;99567.83;24618;1331;3026305;-70
2022/12/09 08:19:05;;;;;;;9.40;5.50;;;;;;;5.87;85.09;99560.38;24636;1324;3025742;-70
2022/12/09 08:21:34;;;;;;;11.50;6.10;;;;;;;5.95;84.15;99554.48;24554;1333;3050765;-69
2022/12/09 08:24:04;;;;;;;14.00;6.30;;;;;;;5.76;84.42;99550.20;24569;1333;3027118;-71
2022/12/09 08:26:33;;;;;;;10.90;5.70;;;;;;;5.66;84.89;99550.58;24595;1326;3052499;-70
2022/12/09 08:29:06;;;;;;;10.10;5.60;;;;;;;5.49;85.60;99556.27;24574;1331;3026165;-67
2022/12/09 08:31:36;;;;;;;9.10;5.00;;;;;;;5.29;86.23;99550.46;24537;1333;3054224;-66
2022/12/09 08:34:05;;;;;;;11.40;6.60;;;;;;;5.21;86.66;99556.27;24566;1320;3029194;-67
2022/12/09 08:36:35;;;;;;;6.70;3.50;;;;;;;4.83;88.62;99559.55;24593;1324;3026724;-71
2022/12/09 08:39:04;;;;;;;8.30;4.30;;;;;;;5.49;87.85;99550.17;24585;1324;3052385;-66
2022/12/09 08:41:34;;;;;;;8.30;5.20;;;;;;;5.93;84.78;99541.21;24564;1331;3027811;-73
2022/12/09 08:44:06;;;;;;;10.20;5.40;;;;;;;6.03;84.09;99539.25;24598;1331;3055978;-66
2022/12/09 08:46:36;;;;;;;11.50;5.40;;;;;;;5.85;84.13;99540.66;24562;1323;3027347;-72
2022/12/09 08:49:06;;;;;;;10.00;5.80;;;;;;;5.73;84.70;99535.19;24563;1340;3025831;-65
2022/12/09 08:51:35;;;;;;;12.60;6.20;;;;;;;5.69;84.63;99539.70;24524;1331;3028455;-68
2022/12/09 08:54:04;;;;;;;11.00;6.10;;;;;;;5.47;85.30;99544.01;24558;1340;3026539;-67
2022/12/09 08:56:33;;;;;;;11.90;5.60;;;;;;;5.37;85.55;99536.23;24531;1330;3051841;-69
2022/12/09 08:59:02;;;;;;;10.30;4.80;;;;;;;5.25;86.29;99532.51;24602;1329;3028957;-70
2022/12/09 09:01:33;;;;;;;10.30;5.30;;;;;;;5.68;86.04;99533.64;24552;1331;3052999;-71
2022/12/09 09:04:07;;;;;;;12.80;6.00;;;;;;;6.14;83.42;99522.28;24646;1332;3025890;-67
2022/12/09 09:06:39;;;;;;;14.00;6.00;;;;;;;6.10;82.61;99530.95;24540;1324;3052882;-67
2022/12/09 09:09:08;;;;;;;12.20;5.60;;;;;;;5.81;83.43;99526.38;24681;1338;3026614;-67
2022/12/09 09:12:04;;;;;;;11.70;6.80;;;;;;;5.47;84.63;99525.09;24612;1324;3052229;-68
2022/12/09 09:14:33;;;;;;;13.20;7.00;;;;;;;5.27;85.98;99516.80;24592;1340;3026230;-65
2022/12/09 09:17:03;;;;;;;12.40;6.80;;;;;;;5.18;86.37;99517.17;24592;1340;3028346;-70
2022/12/09 09:19:32;;;;;;;8.10;4.40;;;;;;;5.28;86.64;99505.48;24584;1331;3028408;-67
2022/12/09 09:22:01;;;;;;;9.10;4.90;;;;;;;5.66;85.86;99494.81;24557;1331;3026071;-68
2022/12/09 09:24:30;;;;;;;9.80;5.90;;;;;;;5.97;83.78;99495.11;24558;1324;3048812;-72
2022/12/09 09:26:59;;;;;;;12.70;6.10;;;;;;;5.99;83.18;99495.90;24549;1324;3026119;-69
2022/12/09 09:29:28;;;;;;;10.90;6.50;;;;;;;5.72;84.04;99492.31;24549;1331;3068692;-68
2022/12/09 09:31:57;;;;;;;14.20;7.40;;;;;;;5.74;84.15;99486.99;24600;1324;3026216;-68
2022/12/09 09:34:26;;;;;;;13.90;7.60;;;;;;;5.49;84.63;99485.23;24626;1331;3048950;-69
2022/12/09 09:36:55;;;;;;;12.30;6.90;;;;;;;5.27;85.74;99484.50;24558;1329;3026641;-71
2022/12/09 09:39:24;;;;;;;13.70;6.50;;;;;;;5.17;86.03;99483.85;24653;1331;3025921;-62
2022/12/09 09:41:55;;;;;;;11.10;4.80;;;;;;;5.04;86.71;99481.88;24525;1324;3048801;-70
2022/12/09 09:44:37;;;;;;;11.00;5.20;;;;;;;5.57;85.72;99477.08;24633;1324;3025786;-66
2022/12/09 09:47:55;;;;;;;13.00;6.00;;;;;;;5.97;83.21;99468.56;24602;1333;3049357;-66
2022/12/09 09:50:32;;;;;;;12.70;7.00;;;;;;;6.07;82.07;99461.38;24560;1333;3056559;-70
2022/12/09 09:53:09;;;;;;;10.90;5.70;;;;;;;5.79;83.23;99465.94;24635;1325;3052634;-69
2022/12/09 09:55:43;;;;;;;13.30;7.10;;;;;;;5.45;84.21;99476.33;24574;1331;3053139;-68
2022/12/09 09:58:17;;;;;;;13.40;7.60;;;;;;;5.20;85.61;99475.91;24567;1331;3028188;-69
2022/12/09 10:01:01;;;;;;;12.70;7.10;;;;;;;5.04;87.00;99473.74;24608;1331;3052986;-70
2022/12/09 10:03:52;;;;;;;9.50;5.10;;;;;;;5.01;86.92;99471.06;24577;1323;3048765;-68
2022/12/09 10:06:24;;;;;;;12.60;6.20;;;;;;;5.67;85.86;99463.66;24632;1334;3069154;-70
2022/12/09 10:08:55;;;;;;;14.30;6.80;;;;;;;5.78;84.17;99460.27;24661;1334;3025974;-68
2022/12/09 10:11:31;;;;;;;15.50;7.40;;;;;;;5.79;84.21;99460.58;24557;1331;3026393;-67
2022/12/09 10:14:03;;;;;;;14.00;7.50;;;;;;;5.25;85.78;99461.33;24599;1333;3053523;-68
2022/12/09 10:17:05;;;;;;;15.90;8.50;;;;;;;5.20;86.54;99463.41;24592;1331;3026139;-69
2022/12/09 10:19:35;;;;;;;16.50;7.60;;;;;;;5.06;87.36;99458.55;24603;1323;3051350;-69
2022/12/09 10:22:16;;;;;;;13.10;6.50;;;;;;;4.86;88.33;99459.81;24690;1333;3026142;-69
2022/12/09 10:24:50;;;;;;;10.70;5.20;;;;;;;4.86;89.03;99454.10;24623;1322;3048444;-70
2022/12/09 10:27:29;;;;;;;9.60;5.20;;;;;;;5.28;87.98;99448.02;24582;1331;3069653;-70
2022/12/09 10:30:04;;;;;;;11.40;6.10;;;;;;;6.04;84.96;99440.95;24592;1339;3049590;-70
2022/12/09 10:32:35;;;;;;;12.00;6.60;;;;;;;5.87;84.34;99441.81;24610;1329;3056833;-69
2022/12/09 10:35:14;;;;;;;10.70;6.50;;;;;;;5.31;86.43;99447.70;24557;1324;3028474;-70
2022/12/09 10:37:45;;;;;;;14.70;6.50;;;;;;;5.35;86.78;99449.48;24658;1323;3053517;-70
2022/12/09 10:40:18;;;;;;;12.20;6.60;;;;;;;5.35;86.57;99447.22;24625;1330;3026005;-70
2022/12/09 10:45:49;;;;;;;6.80;3.50;;;;;;;4.90;89.12;99439.52;24628;1333;3050501;-68
2022/12/09 10:48:19;;;;;;;10.80;5.20;;;;;;;5.71;87.12;99427.18;24649;1334;3068842;-65
2022/12/09 10:50:54;;;;;;;11.40;6.60;;;;;;;5.92;85.31;99426.32;24606;1330;3028675;-64
2022/12/09 10:53:23;;;;;;;14.00;6.10;;;;;;;6.00;84.72;99423.92;24554;1329;3055966;-65
2022/12/09 10:55:53;;;;;;;11.90;6.60;;;;;;;5.91;84.46;99423.75;24635;1326;3028799;-68
2022/12/09 10:58:24;;;;;;;14.50;7.40;;;;;;;5.62;85.24;99427.56;24639;1331;3049699;-68
2022/12/09 11:00:57;;;;;;;13.30;6.60;;;;;;;5.49;86.11;99431.36;24623;1324;3025815;-65
2022/12/09 11:03:35;;;;;;;12.50;6.90;;;;;;;5.32;87.13;99428.91;24605;1324;3027106;-66
2022/12/09 11:06:26;;;;;;;7.90;4.50;;;;;;;5.14;88.13;99427.02;24729;1324;3053858;-68
2022/12/09 11:08:58;;;;;;;10.40;4.70;;;;;;;5.83;86.64;99411.40;24568;1324;3052931;-71
2022/12/09 11:11:44;;;;;;;16.80;7.10;;;;;;;6.04;84.39;99411.60;24555;1336;3025974;-66
2022/12/09 11:14:40;;;;;;;13.00;6.40;;;;;;;6.05;84.65;99408.23;24574;1331;3049986;-68
2022/12/09 11:17:12;;;;;;;15.00;8.00;;;;;;;5.87;85.19;99412.77;24540;1330;3069301;-68
2022/12/09 11:19:41;;;;;;;17.90;8.60;;;;;;;5.66;85.50;99412.94;24582;1333;3026051;-69
2022/12/09 11:22:39;;;;;;;17.60;8.70;;;;;;;5.41;86.68;99416.21;24650;1317;3026367;-68
2022/12/09 11:25:11;;;;;;;16.80;8.20;;;;;;;5.27;87.47;99420.59;24613;1332;3051489;-70
2022/12/09 11:27:55;;;;;;;8.50;4.50;;;;;;;5.32;87.84;99421.30;24561;1331;3027140;-70
2022/12/09 11:30:38;;;;;;;12.90;5.60;;;;;;;5.62;86.97;99413.13;24667;1329;3050844;-66
2022/12/09 11:33:14;;;;;;;11.90;6.10;;;;;;;5.93;85.42;99409.60;24595;1333;3052395;-65
2022/12/09 11:35:42;;;;;;;12.90;6.10;;;;;;;5.98;84.88;99402.45;24616;1332;3049406;-66
2022/12/09 11:38:48;;;;;;;16.90;8.10;;;;;;;5.80;84.86;99407.34;24554;1324;3025968;-64
2022/12/09 11:42:12;;;;;;;14.30;6.70;;;;;;;5.74;85.50;99409.69;24549;1331;3051471;-65
2022/12/09 11:44:27;;;;;;;15.20;7.00;;;;;;;5.33;87.06;99417.25;24536;1340;3049673;-63
2022/12/09 11:47:09;;;;;;;14.80;7.00;;;;;;;5.19;88.25;99413.63;24594;1330;3068565;-69
2022/12/09 11:49:46;;;;;;;8.50;4.10;;;;;;;5.12;89.02;99411.81;24599;1331;3050130;-66